Time;durP1;ratioP1;P1;durP2;ratioP2;P2;SDS_P1;SDS_P2;PMS_P1;PMS_P2;Temp;Humidity;BMP_temperature;BMP_pressure;BME280_temperature;BME280_humidity;BME280_pressure;Samples;Min_cycle;Max_cycle;Signal;HPM_P1;HPM_P2
2023/03/15 00:01:18;;;;;;;;;;;;;;;6.09;54.31;99945.77;107784;1254;61090;-64
2023/03/15 00:03:46;;;;;;;;;;;;;;;6.05;54.42;99937.52;107960;1254;76009;-64
2023/03/15 00:06:14;;;;;;;;;;;;;;;6.00;54.69;99938.52;108026;1254;72232;-64
2023/03/15 00:08:46;;;;;;;;;;;;;;;5.98;54.69;99933.72;107976;1254;73600;-64
2023/03/15 00:11:20;;;;;;;;;;;;;;;5.97;54.93;99936.95;107977;1254;61292;-64
2023/03/15 00:13:50;;;;;;;;;;;;;;;5.96;55.13;99931.88;108040;1254;61240;-64
2023/03/15 00:16:19;;;;;;;;;;;;;;;5.93;55.15;99927.20;107874;1257;74054;-64
2023/03/15 00:18:54;;;;;;;;;;;;;;;5.92;55.32;99924.73;107992;1254;72967;-64
2023/03/15 00:21:23;;;;;;;;;;;;;;;5.90;55.51;99918.41;107819;1256;73414;-65
2023/03/15 00:23:52;;;;;;;;;;;;;;;5.89;55.58;99915.10;108042;1254;61176;-64
2023/03/15 00:26:21;;;;;;;;;;;;;;;5.87;55.64;99913.05;107922;1254;61266;-64
2023/03/15 00:28:50;;;;;;;;;;;;;;;5.86;55.87;99910.14;108005;1254;74022;-63
2023/03/15 00:31:20;;;;;;;;;;;;;;;5.86;56.00;99911.61;107983;1254;73273;-63
2023/03/15 00:33:54;;;;;;;;;;;;;;;5.86;56.03;99911.61;107931;1254;73940;-63
2023/03/15 00:36:26;;;;;;;;;;;;;;;5.85;56.18;99909.26;107935;1254;63869;-65
2023/03/15 00:38:56;;;;;;;;;;;;;;;5.84;56.19;99904.27;108083;1254;61173;-66
2023/03/15 00:41:25;;;;;;;;;;;;;;;5.82;56.36;99902.45;107972;1254;75105;-62
2023/03/15 00:43:56;;;;;;;;;;;;;;;5.80;56.55;99901.81;108110;1254;72781;-64
2023/03/15 00:46:24;;;;;;;;;;;;;;;5.78;56.50;99906.55;107962;1254;72908;-63
2023/03/15 00:48:53;;;;;;;;;;;;;;;5.76;56.74;99905.62;107979;1254;61337;-64
2023/03/15 00:51:22;;;;;;;;;;;;;;;5.73;56.65;99907.11;107991;1254;61125;-64
2023/03/15 00:53:51;;;;;;;;;;;;;;;5.65;56.64;99907.14;107876;1254;74631;-64
2023/03/15 00:56:23;;;;;;;;;;;;;;;5.58;56.81;99898.39;107983;1254;73780;-65
2023/03/15 00:58:52;;;;;;;;;;;;;;;5.50;56.81;99893.80;107852;1254;71722;-65
2023/03/15 01:01:21;;;;;;;;;;;;;;;5.39;57.06;99897.77;108018;1254;62265;-65
2023/03/15 01:03:50;;;;;;;;;;;;;;;5.31;57.11;99904.94;107946;1254;61110;-65
2023/03/15 01:06:19;;;;;;;;;;;;;;;5.28;57.20;99902.54;107910;1254;75353;-64
2023/03/15 01:08:48;;;;;;;;;;;;;;;5.26;57.23;99900.12;107932;1254;74032;-64
2023/03/15 01:11:18;;;;;;;;;;;;;;;5.24;57.47;99897.49;108023;1254;71996;-64
2023/03/15 01:13:46;;;;;;;;;;;;;;;5.22;57.54;99899.48;107948;1256;61057;-64
2023/03/15 01:16:16;;;;;;;;;;;;;;;5.22;57.83;99899.61;107882;1254;61112;-64
2023/03/15 01:18:45;;;;;;;;;;;;;;;5.21;57.94;99905.86;107936;1254;74595;-63
2023/03/15 01:21:14;;;;;;;;;;;;;;;5.20;58.11;99906.33;108053;1254;73085;-63
2023/03/15 01:23:45;;;;;;;;;;;;;;;5.20;58.32;99905.72;108044;1254;72913;-64
2023/03/15 01:26:14;;;;;;;;;;;;;;;5.19;58.28;99908.83;107881;1254;61441;-65
2023/03/15 01:29:17;;;;;;;;;;;;;;;5.18;58.41;99909.58;107929;1254;61096;-65
2023/03/15 01:31:45;;;;;;;;;;;;;;;5.18;58.45;99908.45;107980;1254;75965;-64
2023/03/15 01:34:14;;;;;;;;;;;;;;;5.17;58.51;99909.17;108110;1254;72334;-64
2023/03/15 01:36:43;;;;;;;;;;;;;;;5.16;58.44;99908.77;108070;1254;71785;-64
2023/03/15 01:39:11;;;;;;;;;;;;;;;5.15;58.52;99907.13;108103;1254;61218;-64
2023/03/15 01:41:45;;;;;;;;;;;;;;;5.13;58.69;99906.40;108027;1254;61323;-64
2023/03/15 01:44:14;;;;;;;;;;;;;;;5.10;58.66;99907.40;108121;1254;75805;-65
2023/03/15 01:46:43;;;;;;;;;;;;;;;5.09;58.83;99913.85;108024;1254;72254;-64
2023/03/15 01:49:21;;;;;;;;;;;;;;;5.08;58.86;99919.17;108034;1254;72852;-64
2023/03/15 01:51:57;;;;;;;;;;;;;;;5.07;59.05;99921.33;108032;1254;61932;-64
2023/03/15 01:54:42;;;;;;;;;;;;;;;5.05;58.96;99919.15;108086;1254;61108;-64
2023/03/15 01:57:29;;;;;;;;;;;;;;;5.03;59.18;99913.41;108128;1258;75054;-64
2023/03/15 02:00:09;;;;;;;;;;;;;;;5.02;59.27;99913.55;108084;1254;72517;-64
2023/03/15 02:03:07;;;;;;;;;;;;;;;5.01;59.37;99912.42;108055;1254;72027;-64
2023/03/15 02:05:38;;;;;;;;;;;;;;;4.99;59.59;99912.85;108110;1254;61394;-64
2023/03/15 02:08:07;;;;;;;;;;;;;;;4.97;59.58;99912.07;108162;1254;61103;-64
2023/03/15 02:10:37;;;;;;;;;;;;;;;4.94;59.71;99913.46;108079;1254;75005;-63
2023/03/15 02:13:05;;;;;;;;;;;;;;;4.93;59.89;99913.44;108017;1254;73449;-64
2023/03/15 02:15:35;;;;;;;;;;;;;;;4.90;60.03;99910.69;108094;1254;72936;-65
2023/03/15 02:18:05;;;;;;;;;;;;;;;4.89;60.16;99910.65;108196;1254;61087;-65
2023/03/15 02:20:43;;;;;;;;;;;;;;;4.87;60.34;99913.54;107987;1254;61111;-64
2023/03/15 02:23:12;;;;;;;;;;;;;;;4.85;60.43;99909.05;107941;1254;73805;-63
2023/03/15 02:25:41;;;;;;;;;;;;;;;4.83;60.46;99910.48;107994;1254;72228;-64
2023/03/15 02:28:10;;;;;;;;;;;;;;;4.80;60.70;99911.23;108085;1257;71682;-63
2023/03/15 02:30:38;;;;;;;;;;;;;;;4.78;60.69;99910.92;108053;1254;60399;-64
2023/03/15 02:33:11;;;;;;;;;;;;;;;4.75;60.71;99909.06;108032;1254;61267;-64
2023/03/15 02:35:40;;;;;;;;;;;;;;;4.73;60.77;99905.73;108012;1254;74874;-65
2023/03/15 02:38:10;;;;;;;;;;;;;;;4.70;60.80;99905.26;107977;1254;73258;-64
2023/03/15 02:40:39;;;;;;;;;;;;;;;4.66;61.04;99901.99;108080;1254;73663;-64
2023/03/15 02:43:08;;;;;;;;;;;;;;;4.61;61.18;99894.45;108104;1254;61373;-66
2023/03/15 02:45:36;;;;;;;;;;;;;;;4.57;61.20;99886.86;108200;1254;62386;-64
2023/03/15 02:48:05;;;;;;;;;;;;;;;4.54;61.37;99882.13;108166;1256;74866;-64
2023/03/15 02:50:35;;;;;;;;;;;;;;;4.50;61.50;99878.19;107959;1254;72980;-63
2023/03/15 02:53:05;;;;;;;;;;;;;;;4.46;61.63;99879.39;108014;1254;71905;-64
2023/03/15 02:55:34;;;;;;;;;;;;;;;4.42;61.71;99879.30;108121;1254;61938;-64
2023/03/15 02:58:02;;;;;;;;;;;;;;;4.39;61.57;99875.90;108050;1254;61090;-65
2023/03/15 03:00:31;;;;;;;;;;;;;;;4.35;61.72;99876.09;108106;1254;74301;-64
2023/03/15 03:03:01;;;;;;;;;;;;;;;4.31;61.85;99875.64;107969;1254;72166;-64
2023/03/15 03:05:29;;;;;;;;;;;;;;;4.28;61.87;99874.13;107977;1259;71603;-64
2023/03/15 03:07:57;;;;;;;;;;;;;;;4.26;61.77;99871.77;107927;1256;61462;-66
2023/03/15 03:10:28;;;;;;;;;;;;;;;4.20;61.84;99867.68;108100;1255;61243;-64
2023/03/15 03:12:57;;;;;;;;;;;;;;;4.13;62.06;99861.67;108232;1257;73610;-65
2023/03/15 03:15:37;;;;;;;;;;;;;;;4.15;62.04;99855.05;108046;1254;74270;-64
2023/03/15 03:18:05;;;;;;;;;;;;;;;4.05;62.32;99854.39;108081;1254;74211;-64
2023/03/15 03:20:34;;;;;;;;;;;;;;;4.05;62.40;99856.83;108112;1254;61225;-64
2023/03/15 03:23:05;;;;;;;;;;;;;;;3.95;62.62;99862.75;108073;1254;61151;-64
2023/03/15 03:25:35;;;;;;;;;;;;;;;3.91;62.77;99871.48;108074;1253;75756;-64
2023/03/15 03:28:09;;;;;;;;;;;;;;;3.87;63.02;99868.80;108069;1258;72134;-64
2023/03/15 03:30:37;;;;;;;;;;;;;;;3.84;63.10;99868.94;107950;1254;73966;-64
2023/03/15 03:33:05;;;;;;;;;;;;;;;3.80;63.32;99870.75;108083;1253;61183;-66
2023/03/15 03:35:34;;;;;;;;;;;;;;;3.76;63.22;99869.82;108004;1254;61131;-64
2023/03/15 03:38:02;;;;;;;;;;;;;;;3.73;63.43;99876.25;108076;1254;73827;-64
2023/03/15 03:40:42;;;;;;;;;;;;;;;3.70;63.45;99878.14;107986;1254;72846;-65
2023/03/15 03:43:10;;;;;;;;;;;;;;;3.66;63.59;99874.88;107930;1254;71774;-64
2023/03/15 03:45:39;;;;;;;;;;;;;;;3.62;63.90;99873.02;108135;1254;61248;-64
2023/03/15 03:48:08;;;;;;;;;;;;;;;3.60;63.94;99874.34;108094;1254;61099;-63
2023/03/15 03:50:37;;;;;;;;;;;;;;;3.56;64.14;99877.30;108179;1258;74007;-64
2023/03/15 03:53:08;;;;;;;;;;;;;;;3.54;64.36;99876.16;108069;1254;72010;-64
2023/03/15 03:55:37;;;;;;;;;;;;;;;3.53;64.28;99872.18;107973;1254;71792;-64
2023/03/15 03:58:08;;;;;;;;;;;;;;;3.51;64.42;99873.20;108077;1254;61067;-64
2023/03/15 04:00:47;;;;;;;;;;;;;;;3.49;64.52;99876.04;108078;1254;61093;-64
2023/03/15 04:03:16;;;;;;;;;;;;;;;3.46;64.70;99874.02;108210;1258;74925;-64
2023/03/15 04:05:51;;;;;;;;;;;;;;;3.44;64.70;99875.65;108181;1258;73010;-65
2023/03/15 04:08:23;;;;;;;;;;;;;;;3.43;64.95;99874.80;107978;1254;73067;-64
2023/03/15 04:10:53;;;;;;;;;;;;;;;3.43;65.04;99878.57;107986;1254;61227;-65
2023/03/15 04:13:23;;;;;;;;;;;;;;;3.41;65.17;99883.34;108005;1254;61090;-64
2023/03/15 04:15:56;;;;;;;;;;;;;;;3.40;65.21;99882.74;108062;1254;74397;-65
2023/03/15 04:18:33;;;;;;;;;;;;;;;3.41;65.42;99880.38;107951;1254;73623;-64
2023/03/15 04:21:03;;;;;;;;;;;;;;;3.43;65.53;99880.80;108119;1255;73138;-64
2023/03/15 04:23:33;;;;;;;;;;;;;;;3.45;65.79;99884.09;107989;1254;61116;-64
2023/03/15 04:26:18;;;;;;;;;;;;;;;3.51;65.98;99886.55;108083;1254;61557;-64
2023/03/15 04:29:07;;;;;;;;;;;;;;;3.60;65.96;99886.11;107702;1257;72931;-63
2023/03/15 04:32:00;;;;;;;;;;;;;;;3.76;66.04;99888.20;108129;1254;73726;-65
2023/03/15 04:34:42;;;;;;;;;;;;;;;3.77;66.05;99880.13;108062;1254;72106;-64
2023/03/15 04:37:32;;;;;;;;;;;;;;;3.90;65.96;99872.52;108067;1254;63569;-64
2023/03/15 04:40:14;;;;;;;;;;;;;;;4.03;65.87;99879.50;108086;1254;61154;-62
2023/03/15 04:43:08;;;;;;;;;;;;;;;3.98;66.15;99881.16;104093;1254;75502;-63
2023/03/15 04:45:57;;;;;;;;;;;;;;;4.01;66.30;99885.60;108009;1254;73789;-64
2023/03/15 04:48:43;;;;;;;;;;;;;;;4.06;66.32;99887.98;108066;1254;61593;-64
2023/03/15 04:51:47;;;;;;;;;;;;;;;4.13;66.44;99888.34;107988;1254;61250;-64
2023/03/15 04:54:34;;;;;;;;;;;;;;;4.20;66.42;99893.42;108076;1254;75057;-63
2023/03/15 04:57:13;;;;;;;;;;;;;;;4.27;66.46;99899.39;108021;1257;72048;-65
2023/03/15 04:59:41;;;;;;;;;;;;;;;4.35;66.50;99900.39;108065;1254;73888;-65
2023/03/15 05:02:29;;;;;;;;;;;;;;;4.44;66.43;99902.98;108093;1254;62533;-64
2023/03/15 05:05:15;;;;;;;;;;;;;;;4.55;66.50;99905.30;108008;1256;61183;-65
2023/03/15 05:08:06;;;;;;;;;;;;;;;4.64;66.43;99904.59;107947;1254;74796;-65
2023/03/15 06:10:55;;;;;;;;;;;;;;;6.23;64.08;99899.94;107975;1254;61442;-65
2023/03/15 06:13:24;;;;;;;;;;;;;;;6.30;63.89;99897.59;108013;1257;61091;-63
2023/03/15 06:15:53;;;;;;;;;;;;;;;6.37;63.90;99899.38;108062;1254;74690;-62
2023/03/15 06:18:25;;;;;;;;;;;;;;;6.45;63.88;99901.93;108085;1254;73000;-64
2023/03/15 06:20:54;;;;;;;;;;;;;;;6.54;63.69;99897.06;108020;1258;72885;-64
2023/03/15 06:23:25;;;;;;;;;;;;;;;6.64;63.63;99891.39;107963;1254;61098;-64
2023/03/15 06:25:54;;;;;;;;;;;;;;;6.73;63.41;99889.31;108035;1254;61112;-64
2023/03/15 06:28:23;;;;;;;;;;;;;;;6.83;63.31;99885.30;108011;1254;73732;-64
2023/03/15 06:31:07;;;;;;;;;;;;;;;6.97;63.13;99875.20;108155;1256;73097;-68
2023/03/15 06:33:39;;;;;;;;;;;;;;;7.12;62.93;99874.52;108023;1254;71929;-65
2023/03/15 06:36:10;;;;;;;;;;;;;;;7.25;62.60;99879.95;108082;1254;61249;-63
2023/03/15 06:38:40;;;;;;;;;;;;;;;7.38;62.28;99883.72;108068;1254;61125;-64
2023/03/15 06:41:11;;;;;;;;;;;;;;;7.50;61.95;99883.09;108078;1254;73872;-63
2023/03/15 06:43:40;;;;;;;;;;;;;;;7.60;61.56;99879.14;108051;1254;73142;-63
2023/03/15 06:46:08;;;;;;;;;;;;;;;7.68;61.19;99876.06;108176;1254;73667;-63
2023/03/15 06:48:37;;;;;;;;;;;;;;;7.75;60.93;99880.32;108077;1254;61333;-63
2023/03/15 06:51:08;;;;;;;;;;;;;;;7.83;60.65;99885.75;108089;1254;61110;-65
2023/03/15 06:53:37;;;;;;;;;;;;;;;7.91;60.50;99885.74;107987;1254;74038;-64
2023/03/15 06:56:05;;;;;;;;;;;;;;;7.98;60.22;99883.77;107949;1260;73565;-64
2023/03/15 06:58:34;;;;;;;;;;;;;;;8.05;60.08;99881.90;108043;1259;72504;-64
2023/03/15 07:01:02;;;;;;;;;;;;;;;8.13;59.76;99880.63;108095;1254;61105;-64
2023/03/15 07:03:34;;;;;;;;;;;;;;;8.21;59.52;99878.81;108104;1256;61330;-64
2023/03/15 07:06:03;;;;;;;;;;;;;;;8.33;59.38;99871.63;108038;1254;74833;-63
2023/03/15 07:08:32;;;;;;;;;;;;;;;8.44;59.11;99870.77;108457;1254;71708;-63
2023/03/15 07:11:01;;;;;;;;;;;;;;;8.58;59.03;99877.42;108127;1254;71964;-63
2023/03/15 07:13:30;;;;;;;;;;;;;;;8.74;58.65;99884.14;108147;1254;61314;-64
2023/03/15 07:16:00;;;;;;;;;;;;;;;8.89;58.26;99888.40;108149;1254;61260;-64
2023/03/15 07:18:31;;;;;;;;;;;;;;;9.03;58.01;99879.91;108086;1254;74121;-64
2023/03/15 07:21:00;;;;;;;;;;;;;;;9.18;57.64;99874.40;107926;1254;73070;-63
2023/03/15 07:23:29;;;;;;;;;;;;;;;9.26;56.99;99878.03;108022;1259;73204;-64
2023/03/15 07:25:57;;;;;;;;;;;;;;;9.30;56.59;99886.72;108035;1254;62374;-64
2023/03/15 07:28:29;;;;;;;;;;;;;;;9.27;56.31;99885.86;108059;1257;61330;-64
2023/03/15 07:31:01;;;;;;;;;;;;;;;9.23;56.11;99883.25;108072;1254;74938;-64
2023/03/15 07:33:30;;;;;;;;;;;;;;;9.20;56.03;99883.62;108066;1254;74228;-64
2023/03/15 07:36:00;;;;;;;;;;;;;;;9.25;55.99;99881.39;108056;1254;72922;-63
2023/03/15 07:38:29;;;;;;;;;;;;;;;9.34;56.10;99878.47;108022;1254;61302;-64
2023/03/15 07:41:00;;;;;;;;;;;;;;;9.48;55.95;99876.14;108008;1254;61237;-64
2023/03/15 07:43:29;;;;;;;;;;;;;;;9.61;55.60;99873.14;108046;1254;74853;-64
2023/03/15 07:46:10;;;;;;;;;;;;;;;9.73;55.35;99869.31;107946;1259;72547;-65
2023/03/15 07:48:40;;;;;;;;;;;;;;;9.83;55.06;99865.61;108047;1254;72841;-66
2023/03/15 07:51:08;;;;;;;;;;;;;;;9.94;54.78;99870.62;108035;1254;61461;-64
2023/03/15 07:53:41;;;;;;;;;;;;;;;10.05;54.66;99872.20;108051;1259;61239;-64
2023/03/15 07:56:09;;;;;;;;;;;;;;;10.16;54.30;99875.70;108018;1254;74881;-64
2023/03/15 07:58:38;;;;;;;;;;;;;;;10.25;53.90;99879.21;108278;1254;71707;-63
2023/03/15 08:01:08;;;;;;;;;;;;;;;10.31;53.74;99876.21;108035;1254;73089;-64
2023/03/15 08:03:37;;;;;;;;;;;;;;;10.42;53.50;99875.44;108238;1254;61495;-65
2023/03/15 08:06:10;;;;;;;;;;;;;;;10.49;53.29;99873.01;108073;1258;61176;-65
2023/03/15 08:08:42;;;;;;;;;;;;;;;10.53;52.89;99872.56;108023;1254;75618;-65
2023/03/15 08:11:10;;;;;;;;;;;;;;;10.57;52.82;99862.03;108050;1254;72768;-64
2023/03/15 08:13:42;;;;;;;;;;;;;;;10.61;52.61;99862.23;108082;1257;73673;-64
2023/03/15 08:16:10;;;;;;;;;;;;;;;10.65;52.62;99860.98;108053;1254;61933;-65
2023/03/15 08:18:45;;;;;;;;;;;;;;;10.67;52.20;99862.80;108017;1254;61160;-64
2023/03/15 08:21:15;;;;;;;;;;;;;;;10.67;52.52;99860.50;108091;1253;74312;-64
2023/03/15 08:23:44;;;;;;;;;;;;;;;10.74;52.51;99866.61;85408;1254;20002794;-66
2023/03/15 08:26:15;;;;;;;;;;;;;;;10.84;52.37;99870.51;107805;1254;72015;-65
2023/03/15 08:28:45;;;;;;;;;;;;;;;10.92;52.21;99875.87;108328;1256;61221;-65
2023/03/15 08:31:14;;;;;;;;;;;;;;;10.95;52.05;99877.88;107990;1254;61098;-65
2023/03/15 08:33:43;;;;;;;;;;;;;;;10.95;51.90;99874.77;107825;1256;75727;-65
2023/03/15 08:36:11;;;;;;;;;;;;;;;10.93;51.83;99873.30;107940;1254;74087;-64
2023/03/15 08:38:40;;;;;;;;;;;;;;;10.86;51.88;99872.68;109242;1258;74339;-65
2023/03/15 08:41:09;;;;;;;;;;;;;;;10.78;51.93;99874.17;109112;1254;61315;-65
2023/03/15 08:43:37;;;;;;;;;;;;;;;10.66;51.97;99871.98;107998;1254;61754;-64
2023/03/15 08:46:06;;;;;;;;;;;;;;;10.53;52.21;99866.64;108085;1254;74163;-63
2023/03/15 08:48:35;;;;;;;;;;;;;;;10.46;52.53;99866.83;108121;1254;73587;-65
2023/03/15 08:51:05;;;;;;;;;;;;;;;10.43;52.68;99874.32;108033;1257;71845;-65
2023/03/15 08:53:34;;;;;;;;;;;;;;;10.41;52.98;99868.46;108109;1258;61846;-63
2023/03/15 08:56:03;;;;;;;;;;;;;;;10.45;53.16;99870.41;108168;1254;61097;-65
2023/03/15 08:58:33;;;;;;;;;;;;;;;10.48;53.03;99871.36;108008;1258;74885;-65
2023/03/15 09:01:03;;;;;;;;;;;;;;;10.53;53.18;99871.17;108136;1258;73589;-64
2023/03/15 09:03:32;;;;;;;;;;;;;;;10.61;53.14;99872.11;107970;1255;73771;-61
2023/03/15 09:06:00;;;;;;;;;;;;;;;10.65;52.86;99874.39;108149;1255;61197;-64
2023/03/15 09:08:29;;;;;;;;;;;;;;;10.64;52.71;99871.04;108111;1256;61112;-65
2023/03/15 09:10:58;;;;;;;;;;;;;;;10.67;52.82;99869.57;108243;1254;74671;-64
2023/03/15 09:13:27;;;;;;;;;;;;;;;10.73;52.79;99867.14;108143;1259;71937;-67
2023/03/15 09:15:59;;;;;;;;;;;;;;;10.90;52.51;99860.86;108172;1254;71956;-64
2023/03/15 09:18:28;;;;;;;;;;;;;;;10.93;52.44;99852.76;108318;1254;61487;-64
2023/03/15 09:20:56;;;;;;;;;;;;;;;10.92;52.47;99843.86;108098;1258;61247;-64
2023/03/15 09:23:25;;;;;;;;;;;;;;;10.96;52.43;99837.24;108155;1254;74938;-65
2023/03/15 09:25:54;;;;;;;;;;;;;;;11.06;52.45;99833.55;108091;1254;71138;-65
2023/03/15 09:28:24;;;;;;;;;;;;;;;11.16;52.33;99834.41;108070;1255;73654;-64
2023/03/15 09:30:53;;;;;;;;;;;;;;;11.22;51.94;99835.38;92892;1259;20001442;-63
2023/03/15 09:33:21;;;;;;;;;;;;;;;11.27;51.92;99835.48;100398;1254;10001765;-64
2023/03/15 09:35:52;;;;;;;;;;;;;;;11.34;51.88;99838.55;107912;1260;75630;-65
2023/03/15 09:38:23;;;;;;;;;;;;;;;11.41;51.84;99842.07;108018;1254;72060;-64
2023/03/15 09:40:57;;;;;;;;;;;;;;;11.46;51.61;99846.04;107896;1260;73523;-65
2023/03/15 09:43:31;;;;;;;;;;;;;;;11.50;51.59;99849.60;108090;1254;61898;-66
2023/03/15 09:46:15;;;;;;;;;;;;;;;11.54;51.56;99847.64;108115;1254;61138;-63
2023/03/15 09:48:51;;;;;;;;;;;;;;;11.64;51.37;99839.64;107947;1254;75234;-65
2023/03/15 09:51:34;;;;;;;;;;;;;;;11.81;51.16;99830.65;107947;1254;71921;-64
2023/03/15 09:54:28;;;;;;;;;;;;;;;11.86;51.15;99828.91;107944;1254;72899;-65
2023/03/15 09:57:01;;;;;;;;;;;;;;;11.88;51.14;99826.60;107905;1254;61195;-64
2023/03/15 09:59:33;;;;;;;;;;;;;;;11.94;51.02;99826.10;107974;1254;61132;-64
2023/03/15 10:02:14;;;;;;;;;;;;;;;12.01;50.92;99825.54;108031;1255;74885;-65
2023/03/15 10:04:42;;;;;;;;;;;;;;;12.10;50.75;99823.37;107982;1259;72036;-66
2023/03/15 10:07:11;;;;;;;;;;;;;;;12.18;50.72;99826.60;107896;1259;72736;-65
2023/03/15 10:09:39;;;;;;;;;;;;;;;12.25;50.45;99823.68;107944;1254;61985;-64
2023/03/15 10:12:14;;;;;;;;;;;;;;;12.29;50.40;99817.95;107930;1254;61351;-66
2023/03/15 10:14:47;;;;;;;;;;;;;;;12.34;50.09;99816.23;107909;1254;75718;-64
2023/03/15 10:17:36;;;;;;;;;;;;;;;12.38;50.09;99812.66;107887;1254;72982;-63
2023/03/15 10:20:08;;;;;;;;;;;;;;;12.48;49.89;99807.29;109107;1254;71731;-66
2023/03/15 10:22:44;;;;;;;;;;;;;;;12.55;49.57;99801.23;108947;1260;61253;-66
2023/03/15 10:25:28;;;;;;;;;;;;;;;12.60;49.41;99794.27;107853;1254;61134;-64
2023/03/15 10:28:00;;;;;;;;;;;;;;;12.63;49.20;99788.43;107956;1254;73248;-68
2023/03/15 10:30:30;;;;;;;;;;;;;;;12.67;49.04;99796.48;107888;1254;73669;-64
2023/03/15 10:33:17;;;;;;;;;;;;;;;12.71;48.93;99802.47;108089;1254;72833;-64
2023/03/15 10:35:45;;;;;;;;;;;;;;;12.77;48.96;99808.48;108032;1254;61182;-64
2023/03/15 10:38:19;;;;;;;;;;;;;;;12.83;48.55;99805.31;107989;1254;61439;-63
2023/03/15 10:40:52;;;;;;;;;;;;;;;12.91;48.55;99802.88;108057;1255;74878;-65
2023/03/15 10:43:23;;;;;;;;;;;;;;;12.99;48.51;99804.23;108127;1254;73686;-65
2023/03/15 10:46:00;;;;;;;;;;;;;;;13.05;48.15;99796.77;108098;1254;73633;-64
2023/03/15 10:48:32;;;;;;;;;;;;;;;13.18;47.85;99801.55;108078;1254;61075;-64
2023/03/15 10:51:06;;;;;;;;;;;;;;;13.29;47.74;99799.27;108065;1258;61122;-65
2023/03/15 10:53:34;;;;;;;;;;;;;;;13.33;47.62;99794.10;108063;1254;75615;-64
2023/03/15 10:56:06;;;;;;;;;;;;;;;13.38;47.45;99792.85;107995;1257;72339;-64
2023/03/15 10:58:38;;;;;;;;;;;;;;;13.44;47.19;99785.39;108095;1254;71637;-64
2023/03/15 11:01:08;;;;;;;;;;;;;;;13.53;46.76;99785.57;108133;1254;61212;-65
2023/03/15 11:03:37;;;;;;;;;;;;;;;13.60;46.35;99788.77;107895;1256;61202;-64
2023/03/15 11:06:26;;;;;;;;;;;;;;;13.58;45.96;99787.03;108027;1254;74218;-65
2023/03/15 11:09:06;;;;;;;;;;;;;;;13.53;46.03;99784.38;108086;1254;72392;-64
2023/03/15 11:11:54;;;;;;;;;;;;;;;13.48;46.20;99779.92;107917;1254;74032;-65
2023/03/15 11:14:25;;;;;;;;;;;;;;;13.42;46.45;99780.34;108065;1254;61231;-65
2023/03/15 11:16:55;;;;;;;;;;;;;;;13.29;46.86;99786.98;108153;1254;61304;-66
2023/03/15 11:19:27;;;;;;;;;;;;;;;13.23;47.10;99784.02;107992;1256;74343;-66
2023/03/15 11:21:56;;;;;;;;;;;;;;;13.20;47.47;99783.95;108092;1254;72773;-65
2023/03/15 11:24:25;;;;;;;;;;;;;;;13.19;47.74;99787.28;108012;1254;72918;-65
2023/03/15 11:26:54;;;;;;;;;;;;;;;13.18;47.86;99790.89;108087;1254;61138;-64
2023/03/15 11:29:26;;;;;;;;;;;;;;;13.20;48.22;99791.45;108021;1257;61054;-64
2023/03/15 11:31:55;;;;;;;;;;;;;;;13.28;48.51;99791.95;107868;1260;75672;-64
2023/03/15 11:34:38;;;;;;;;;;;;;;;13.41;48.60;99792.16;108027;1257;74055;-64
2023/03/15 11:37:27;;;;;;;;;;;;;;;13.55;48.53;99788.16;107901;1259;73551;-65
2023/03/15 11:40:02;;;;;;;;;;;;;;;13.66;48.28;99786.89;108068;1254;61603;-66
2023/03/15 11:42:49;;;;;;;;;;;;;;;13.75;48.21;99785.64;108094;1254;61244;-65
2023/03/15 11:45:20;;;;;;;;;;;;;;;13.84;48.11;99782.30;108105;1254;74555;-65
2023/03/15 11:47:57;;;;;;;;;;;;;;;13.92;47.89;99783.29;107997;1254;71692;-65
2023/03/15 11:50:39;;;;;;;;;;;;;;;13.96;47.83;99778.23;108105;1254;73604;-65
2023/03/15 11:53:36;;;;;;;;;;;;;;;14.05;47.80;99779.98;108327;1254;60478;-65
2023/03/15 11:56:18;;;;;;;;;;;;;;;14.15;47.65;99769.11;108208;1254;60438;-65
2023/03/15 11:59:11;;;;;;;;;;;;;;;14.19;47.53;99771.16;108031;1254;72907;-65
2023/03/15 12:02:09;;;;;;;;;;;;;;;14.23;47.66;99774.35;108086;1254;73953;-64
2023/03/15 12:04:51;;;;;;;;;;;;;;;14.33;47.50;99768.19;108010;1260;73718;-66
2023/03/15 12:07:22;;;;;;;;;;;;;;;14.41;47.49;99759.20;108080;1254;60500;-65
2023/03/15 12:10:03;;;;;;;;;;;;;;;14.51;47.40;99754.84;108147;1254;61185;-65
2023/03/15 12:12:37;;;;;;;;;;;;;;;14.62;47.36;99750.19;108144;1254;75955;-66
2023/03/15 12:15:17;;;;;;;;;;;;;;;14.72;47.20;99751.03;108104;1254;71860;-65
2023/03/15 12:18:05;;;;;;;;;;;;;;;14.80;47.03;99751.60;108078;1254;73822;-64
2023/03/15 12:21:06;;;;;;;;;;;;;;;14.87;46.64;99745.20;108169;1254;61080;-66
2023/03/15 12:23:55;;;;;;;;;;;;;;;14.88;46.41;99748.35;108100;1253;61318;-65
2023/03/15 12:26:37;;;;;;;;;;;;;;;14.88;46.28;99744.59;108062;1254;75946;-65
2023/03/15 12:29:12;;;;;;;;;;;;;;;14.89;46.17;99744.52;108136;1254;71831;-65
2023/03/15 12:31:51;;;;;;;;;;;;;;;14.88;46.13;99747.44;108154;1254;72886;-65
2023/03/15 12:34:37;;;;;;;;;;;;;;;14.90;46.09;99742.81;108095;1254;61231;-65
2023/03/15 12:37:06;;;;;;;;;;;;;;;14.89;45.81;99748.79;108113;1254;61228;-65
2023/03/15 12:39:43;;;;;;;;;;;;;;;14.85;45.77;99750.64;108138;1258;73691;-65
2023/03/15 12:42:28;;;;;;;;;;;;;;;14.77;45.75;99745.96;108141;1254;72451;-65
2023/03/15 12:45:14;;;;;;;;;;;;;;;14.75;45.87;99741.77;108058;1253;73930;-66
2023/03/15 12:47:49;;;;;;;;;;;;;;;14.80;45.92;99739.77;108097;1254;61035;-66
2023/03/15 12:50:36;;;;;;;;;;;;;;;14.85;45.78;99738.89;108071;1254;61153;-67
2023/03/15 12:53:11;;;;;;;;;;;;;;;14.92;45.85;99732.02;108093;1257;73712;-67
2023/03/15 12:55:41;;;;;;;;;;;;;;;15.01;45.72;99735.78;108064;1257;74037;-66
2023/03/15 12:58:13;;;;;;;;;;;;;;;15.06;45.58;99734.15;107979;1257;72941;-65
2023/03/15 13:00:55;;;;;;;;;;;;;;;15.09;45.51;99728.67;107990;1257;61215;-64
2023/03/15 13:03:25;;;;;;;;;;;;;;;15.12;45.47;99738.52;108167;1254;61126;-64
2023/03/15 13:06:12;;;;;;;;;;;;;;;15.15;45.49;99741.35;108196;1254;73746;-65
2023/03/15 13:08:46;;;;;;;;;;;;;;;15.17;45.57;99743.35;108130;1254;72139;-65
2023/03/15 13:11:30;;;;;;;;;;;;;;;15.16;45.61;99748.00;108106;1258;72896;-65
2023/03/15 13:14:18;;;;;;;;;;;;;;;15.17;45.64;99740.17;108141;1254;61179;-66
2023/03/15 13:16:55;;;;;;;;;;;;;;;15.22;45.48;99738.38;108209;1254;61202;-65
2023/03/15 13:19:40;;;;;;;;;;;;;;;15.23;45.43;99743.14;108136;1254;74542;-66
2023/03/15 13:22:09;;;;;;;;;;;;;;;15.23;45.35;99748.84;108140;1257;72207;-65
2023/03/15 13:24:56;;;;;;;;;;;;;;;15.21;45.28;99751.85;108107;1257;72175;-64
2023/03/15 13:27:27;;;;;;;;;;;;;;;15.18;45.41;99758.02;108122;1256;61388;-65
2023/03/15 13:29:56;;;;;;;;;;;;;;;15.16;45.39;99759.07;108106;1254;61192;-66
2023/03/15 13:32:24;;;;;;;;;;;;;;;15.15;45.43;99753.02;108116;1254;74622;-65
2023/03/15 13:34:54;;;;;;;;;;;;;;;15.14;45.57;99751.05;108139;1254;73018;-66
2023/03/15 13:37:27;;;;;;;;;;;;;;;15.14;45.51;99750.96;108136;1254;73466;-65
2023/03/15 13:40:00;;;;;;;;;;;;;;;15.11;45.52;99757.87;108090;1257;61135;-65
2023/03/15 13:42:30;;;;;;;;;;;;;;;15.07;45.59;99755.20;108093;1256;60288;-65
2023/03/15 13:45:05;;;;;;;;;;;;;;;15.04;45.65;99756.68;108051;1258;74939;-66
2023/03/15 13:47:33;;;;;;;;;;;;;;;14.98;45.69;99753.70;108122;1254;73804;-65
2023/03/15 13:50:05;;;;;;;;;;;;;;;14.93;45.87;99747.59;108087;1254;73826;-65
2023/03/15 13:52:34;;;;;;;;;;;;;;;14.92;46.07;99750.08;108110;1254;61102;-67
2023/03/15 13:55:04;;;;;;;;;;;;;;;14.96;46.00;99747.29;107986;1256;61108;-65
2023/03/15 13:57:32;;;;;;;;;;;;;;;15.01;45.87;99740.24;108108;1254;73878;-65
2023/03/15 14:00:03;;;;;;;;;;;;;;;15.03;45.54;99739.02;108109;1254;73000;-65
2023/03/15 14:02:35;;;;;;;;;;;;;;;14.98;45.21;99742.17;108084;1254;71685;-65
2023/03/15 14:05:08;;;;;;;;;;;;;;;14.91;45.00;99739.67;108068;1254;61098;-63
2023/03/15 14:07:37;;;;;;;;;;;;;;;14.84;44.96;99740.22;108105;1254;61195;-66
2023/03/15 14:10:15;;;;;;;;;;;;;;;14.78;45.09;99741.38;108125;1254;74834;-65
2023/03/15 14:12:44;;;;;;;;;;;;;;;14.76;45.09;99732.15;108047;1254;73002;-65